»·PEaware :: N72C A39-P14

N72C :: A39-P14

FLIGHT INFORMATION

Flight Status: Arrived
Operator: Privately registered:
United States
More flights under this callsign
Pilot: Charles C. (26995)
Aircraft: SOCATA TBM-900
(TBM9)
More flights by this aircraft type
Origin: A39 Ak-Chin Regional
United States
Destination: P14 Holbrook Mun
United States
More flights between these airports :: More routes between these airports
Route:
File this flight plan on PilotEdge
Remarks:
Altitude:
(Current/Filed)
15,500ft
Speed:
(Current/Filed)
270kts
Departed: 15-Oct-20 12:11 PM
Arrived: 15-Oct-20 12:51 PM
Distance/Time
Traveled:
146nm/0:40
Distance/Time
To Go:
Arrived

Flight Plot

Page will automatically refresh every two minutes.

Flight plan parsing failed; only flown route is shown


Map Options




Map Legend


Flown Route
Filed Route
Departure Airport
Arrival Airport
Navaid (VOR, NDB)
Fix

Horizontal Profiles

Position Reports

Time Latitude Longitude Heading Altitude Ground
Speed
15-Oct-20 12:07 32.990850 -111.920499 220 1288ft 15kts
15-Oct-20 12:08 32.986350 -111.925188 222 1276ft 5kts
15-Oct-20 12:09 32.987009 -111.925431 41 1276ft 27kts
15-Oct-20 12:10 33.008108 -111.897928 55 2687ft 136kts
15-Oct-20 12:11 32.993361 -111.854830 118 4450ft 172kts
15-Oct-20 12:12 32.968387 -111.798114 115 5046ft 224kts
15-Oct-20 12:13 32.939885 -111.726059 97 5028ft 251kts
15-Oct-20 12:14 32.941236 -111.646301 72 6016ft 223kts
15-Oct-20 12:15 32.964330 -111.591216 58 8554ft 176kts
15-Oct-20 12:16 32.994450 -111.547385 45 10428ft 172kts
15-Oct-20 12:17 33.027656 -111.505462 37 12157ft 178kts
15-Oct-20 12:18 33.066659 -111.469646 33 14247ft 180kts
15-Oct-20 12:19 33.108058 -111.437097 26 16030ft 186kts
15-Oct-20 12:21 33.155895 -111.411658 16 17594ft 196kts
15-Oct-20 12:22 33.217081 -111.384871 16 17608ft 258kts
15-Oct-20 12:23 33.287206 -111.350213 27 17598ft 277kts
15-Oct-20 12:24 33.354192 -111.301860 28 17592ft 282kts
15-Oct-20 12:25 33.422576 -111.252753 27 17591ft 283kts
15-Oct-20 12:26 33.490534 -111.203874 28 17588ft 283kts
15-Oct-20 12:27 33.558362 -111.154995 27 17587ft 283kts
15-Oct-20 12:28 33.625820 -111.106301 28 17614ft 282kts
15-Oct-20 12:29 33.692987 -111.057722 28 17711ft 281kts
15-Oct-20 12:30 33.760120 -111.009080 28 17776ft 281kts
15-Oct-20 12:31 33.827614 -110.960085 28 17755ft 283kts
15-Oct-20 12:32 33.893816 -110.911939 28 17755ft 284kts
15-Oct-20 12:33 33.961672 -110.862489 28 17758ft 284kts
15-Oct-20 12:34 34.029218 -110.813178 28 17773ft 284kts
15-Oct-20 12:35 34.096692 -110.763830 28 17783ft 284kts
15-Oct-20 12:36 34.164538 -110.714117 28 17800ft 284kts
15-Oct-20 12:36 34.220830 -110.672796 28 17810ft 284kts
15-Oct-20 12:38 34.299860 -110.614676 28 17607ft 292kts
15-Oct-20 12:38 34.359135 -110.571009 29 16358ft 297kts
15-Oct-20 12:40 34.440478 -110.510948 29 14603ft 291kts
15-Oct-20 12:40 34.497754 -110.468574 29 13356ft 290kts
15-Oct-20 12:42 34.577883 -110.409165 29 11602ft 288kts
15-Oct-20 12:42 34.634634 -110.367015 29 10354ft 287kts
15-Oct-20 12:43 34.702305 -110.316666 30 8845ft 281kts
15-Oct-20 12:44 34.765595 -110.269493 29 7352ft 232kts
15-Oct-20 12:45 34.813271 -110.233891 28 7302ft 184kts
15-Oct-20 12:46 34.851543 -110.204068 32 7409ft 144kts
15-Oct-20 12:47 34.883595 -110.181991 21 6646ft 126kts
15-Oct-20 12:48 34.910414 -110.165313 21 6042ft 98kts
15-Oct-20 12:49 34.931952 -110.147351 30 5362ft 91kts
15-Oct-20 12:50 34.944772 -110.134542 39 5247ft 10kts
15-Oct-20 12:51 34.941154 -110.137331 221 5243ft 28kts
15-Oct-20 12:52 34.935646 -110.142360 151 5241ft 8kts
15-Oct-20 12:53 34.935224 -110.142320 232 5241ft 0kts
15-Oct-20 12:54 34.935224 -110.142320 232 5241ft 0kts
15-Oct-20 12:55 34.935224 -110.142320 232 5241ft 0kts
15-Oct-20 12:56 34.935224 -110.142320 232 5241ft 0kts
15-Oct-20 12:57 34.935224 -110.142320 232 5241ft 0kts
15-Oct-20 12:58 34.935224 -110.142320 232 5241ft 0kts
15-Oct-20 12:59 34.935224 -110.142320 232 5241ft 0kts
15-Oct-20 13:00 34.935224 -110.142320 232 5241ft 0kts
15-Oct-20 13:01 34.935224 -110.142320 232 5241ft 0kts
15-Oct-20 13:02 34.935224 -110.142320 232 5241ft 0kts
15-Oct-20 13:03 34.935224 -110.142320 232 5241ft 0kts

Navigation Log

Ident Type
Flight plan parsing failed, navigation log unavailable